KMXF/MXF METAR and TAF weather

Enter ICAO airport designator
Station Type Date Time Source
KMXF METAR 2019/04/22 17:56 UTC NOAA

KMXF 221756Z AUTO 00000KT 10SM CLR 26/08 A3017 RMK AO2 SLP218 T02580083 10258 20105 57015


Station Type Date Time Source
KMXF Decoded METAR 2019/04/22 17:56 UTC NOAA

Maxwell Air Force Base / Montgomery, AL, United States (KMXF) 32-23N 086-22W
Apr 22, 2019 - 01:56 PM EDT / 2019.04.22 1756 UTC
Wind: Calm:0
Visibility: 10 mile(s):0
Sky conditions: clear
Temperature: 78.4 F (25.8 C)
Dew Point: 46.9 F (8.3 C)
Relative Humidity: 32%
Pressure (altimeter): 30.17 in. Hg (1021 hPa)
Pressure tendency: 0.04 inches (1.5 hPa) lower than three hours ago
ob: KMXF 221756Z AUTO 00000KT 10SM CLR 26/08 A3017 RMK AO2 SLP218 T02580083 10258 20105 57015
cycle: 18

Station Type Date Time Source
KMXF TAF 2019/04/22 11:03 UTC NOAA

TAF KMXF 221100Z 2211/2317 VRB06KT 4800 BR SKC QNH3010INS
TEMPO 2211/2214 0400 FG
BECMG 2213/2214 VRB06KT 9999 NSW SKC QNH3012INS
BECMG 2302/2303 VRB06KT 9999 BKN250 QNH3016INS TX28/2221Z TN09/2211Z

Example: see airport list